createdAt,value
2022-12-14T00:00:56.512Z,99861.13
2022-12-14T00:03:59.339Z,99873.09
2022-12-14T00:07:01.858Z,99861.50
2022-12-14T00:10:05.002Z,99864.72
2022-12-14T00:13:08.788Z,99854.28
2022-12-14T00:16:14.336Z,99853.66
2022-12-14T00:19:18.200Z,99861.59
2022-12-14T00:22:21.153Z,99859.59
2022-12-14T00:25:24.360Z,99851.09
2022-12-14T00:28:27.871Z,99850.97
2022-12-14T00:31:31.601Z,99859.34
2022-12-14T00:34:34.543Z,99855.50
2022-12-14T00:37:38.014Z,99860.34
2022-12-14T00:40:40.907Z,99864.81
2022-12-14T00:43:44.157Z,99866.19
2022-12-14T00:46:47.214Z,99872.56
2022-12-14T00:49:49.834Z,99864.63
2022-12-14T00:52:52.591Z,99866.34
2022-12-14T00:55:55.027Z,99857.13
2022-12-14T00:59:00.006Z,99870.19
2022-12-14T01:02:02.757Z,99870.28
2022-12-14T01:05:06.210Z,99867.78
2022-12-14T01:08:08.939Z,99863.50
2022-12-14T01:11:12.377Z,99870.91
2022-12-14T01:14:16.946Z,99865.66
2022-12-14T01:17:19.693Z,99869.47
2022-12-14T01:20:22.231Z,99864.03
2022-12-14T01:23:25.325Z,99864.78
2022-12-14T01:26:30.290Z,99876.50
2022-12-14T01:29:33.353Z,99883.56
2022-12-14T01:32:36.443Z,99871.47
2022-12-14T01:35:39.375Z,99876.91
2022-12-14T01:38:41.955Z,99873.78
2022-12-14T01:41:52.110Z,99877.75
2022-12-14T01:44:57.458Z,99870.94
2022-12-14T01:48:03.466Z,99871.44
2022-12-14T01:51:05.991Z,99863.47
2022-12-14T01:54:12.206Z,99859.22
2022-12-14T01:57:17.712Z,99858.97
2022-12-14T02:00:21.142Z,99852.31
2022-12-14T02:03:37.067Z,99853.12
2022-12-14T02:06:44.087Z,99848.16
2022-12-14T02:09:48.164Z,99848.06
2022-12-14T02:12:59.284Z,99845.03
2022-12-14T02:16:02.395Z,99842.81
2022-12-14T02:19:05.110Z,99845.72
2022-12-14T02:22:10.851Z,99849.16
2022-12-14T02:26:02.716Z,99843.63
2022-12-14T02:29:43.835Z,99839.63
2022-12-14T02:33:08.132Z,99826.78
2022-12-14T02:36:35.100Z,99824.97
2022-12-14T02:39:45.954Z,99829.50
2022-12-14T02:43:45.081Z,99828.03
2022-12-14T02:47:08.462Z,99827.19
2022-12-14T02:50:22.155Z,99811.34
2022-12-14T02:53:31.285Z,99805.03
2022-12-14T02:56:42.722Z,99804.25
2022-12-14T02:59:46.975Z,99814.78
2022-12-14T03:02:51.684Z,99816.63
2022-12-14T03:06:02.909Z,99812.06
2022-12-14T03:09:14.648Z,99813.72
2022-12-14T03:12:20.579Z,99807.62
2022-12-14T03:15:26.878Z,99808.13
2022-12-14T03:18:36.730Z,99803.44
2022-12-14T03:21:45.400Z,99800.78
2022-12-14T03:24:55.581Z,99803.03
2022-12-14T03:28:08.923Z,99795.25
2022-12-14T03:31:24.933Z,99798.50
2022-12-14T03:35:00.038Z,99788.41
2022-12-14T03:38:11.399Z,99784.88
2022-12-14T03:41:27.631Z,99793.28
2022-12-14T03:44:59.552Z,99787.37
2022-12-14T03:48:09.434Z,99794.69
2022-12-14T03:52:05.647Z,99781.44
2022-12-14T03:55:27.252Z,99772.19
2022-12-14T03:58:36.606Z,99765.66
2022-12-14T04:02:03.366Z,99765.66
2022-12-14T04:05:16.502Z,99756.34
2022-12-14T04:08:24.976Z,99756.78
2022-12-14T04:11:53.511Z,99752.19
2022-12-14T04:15:21.701Z,99738.19
2022-12-14T04:18:57.428Z,99738.34
2022-12-14T04:22:19.146Z,99747.66
2022-12-14T04:25:54.493Z,99754.47
2022-12-14T04:29:24.356Z,99761.94
2022-12-14T04:32:36.533Z,99752.97
2022-12-14T04:35:43.459Z,99739.59
2022-12-14T04:38:51.774Z,99735.38
2022-12-14T04:41:58.800Z,99718.59
2022-12-14T04:45:13.310Z,99714.13
2022-12-14T04:48:27.665Z,99717.25
2022-12-14T04:51:38.660Z,99711.47
2022-12-14T04:54:59.747Z,99707.34
2022-12-14T04:58:20.919Z,99703.37
2022-12-14T05:01:35.454Z,99692.44
2022-12-14T05:05:08.086Z,99687.50
2022-12-14T05:08:23.527Z,99692.31
2022-12-14T05:11:54.075Z,99706.44
2022-12-14T05:15:07.852Z,99707.47
2022-12-14T05:18:11.039Z,99697.47
2022-12-14T05:21:32.722Z,99711.84
2022-12-14T05:24:35.940Z,99710.00
2022-12-14T05:27:41.187Z,99708.97
2022-12-14T05:30:47.108Z,99703.19
2022-12-14T05:33:52.148Z,99699.44
2022-12-14T05:36:55.008Z,99688.94
2022-12-14T05:40:03.848Z,99693.47
2022-12-14T05:43:08.122Z,99695.34
2022-12-14T05:46:12.223Z,99702.09
2022-12-14T05:49:15.129Z,99688.19
2022-12-14T05:52:17.829Z,99682.72
2022-12-14T05:55:20.575Z,99693.25
2022-12-14T05:58:23.188Z,99693.16
2022-12-14T06:01:26.304Z,99697.91
2022-12-14T06:04:29.106Z,99692.50
2022-12-14T06:07:33.436Z,99694.28
2022-12-14T06:10:36.689Z,99664.59
2022-12-14T06:13:40.618Z,99666.13
2022-12-14T06:16:45.757Z,99670.00
2022-12-14T06:19:49.857Z,99649.87
2022-12-14T06:22:55.965Z,99652.88
2022-12-14T06:25:58.517Z,99640.47
2022-12-14T06:29:01.604Z,99646.22
2022-12-14T06:32:04.342Z,99657.66
2022-12-14T06:35:07.969Z,99665.28
2022-12-14T06:38:10.826Z,99654.22
2022-12-14T06:41:13.926Z,99656.25
2022-12-14T06:44:16.793Z,99646.06
2022-12-14T06:47:19.708Z,99642.69
2022-12-14T06:50:22.352Z,99647.09
2022-12-14T06:53:25.434Z,99665.00
2022-12-14T06:56:28.522Z,99652.25
2022-12-14T06:59:31.379Z,99661.38
2022-12-14T07:02:34.162Z,99646.41
2022-12-14T07:05:37.261Z,99648.34
2022-12-14T07:08:40.144Z,99654.03
2022-12-14T07:11:43.088Z,99641.25
2022-12-14T07:14:45.605Z,99643.25
2022-12-14T07:17:48.438Z,99640.88
2022-12-14T07:21:10.307Z,99641.00
2022-12-14T07:24:13.277Z,99644.50
2022-12-14T07:27:18.728Z,99636.63
2022-12-14T07:30:21.732Z,99626.28
2022-12-14T07:33:25.251Z,99621.22
2022-12-14T07:36:29.883Z,99631.06
2022-12-14T07:39:32.579Z,99633.19
2022-12-14T07:42:35.440Z,99638.22
2022-12-14T07:45:40.929Z,99640.31
2022-12-14T07:48:45.475Z,99630.97
2022-12-14T07:51:48.378Z,99642.72
2022-12-14T07:54:51.229Z,99642.37
2022-12-14T07:57:53.749Z,99637.44
2022-12-14T08:00:56.556Z,99636.03
2022-12-14T08:04:08.878Z,99638.81
2022-12-14T08:07:11.357Z,99648.81
2022-12-14T08:10:14.225Z,99652.22
2022-12-14T08:13:16.853Z,99644.13
2022-12-14T08:16:19.743Z,99649.81
2022-12-14T08:19:22.352Z,99637.72
2022-12-14T08:22:25.127Z,99632.97
2022-12-14T08:25:27.565Z,99645.59
2022-12-14T08:28:31.887Z,99633.38
2022-12-14T08:31:34.659Z,99641.84
2022-12-14T08:34:37.525Z,99660.28
2022-12-14T08:37:47.313Z,99641.38
2022-12-14T08:40:52.534Z,99637.19
2022-12-14T08:44:00.129Z,99645.25
2022-12-14T08:47:02.996Z,99629.78
2022-12-14T08:50:06.197Z,99637.53
2022-12-14T08:53:09.067Z,99623.53
2022-12-14T08:56:14.064Z,99626.56
2022-12-14T08:59:37.012Z,99636.44
2022-12-14T09:02:40.422Z,99602.22
2022-12-14T09:05:43.340Z,99601.94
2022-12-14T09:08:47.175Z,99596.41
2022-12-14T09:11:55.886Z,99585.38
2022-12-14T09:15:01.083Z,99573.16
2022-12-14T09:18:03.935Z,99583.38
2022-12-14T09:21:06.684Z,99585.25
2022-12-14T09:24:10.036Z,99585.16
2022-12-14T09:27:12.471Z,99587.97
2022-12-14T09:30:15.367Z,99585.44
2022-12-14T09:33:18.031Z,99587.88
2022-12-14T09:36:23.412Z,99581.72
2022-12-14T09:39:26.199Z,99587.47
2022-12-14T09:42:50.638Z,99579.69
2022-12-14T09:45:59.412Z,99580.34
2022-12-14T09:49:03.282Z,99583.19
2022-12-14T09:52:13.302Z,99576.53
2022-12-14T09:55:31.423Z,99563.47
2022-12-14T09:58:36.460Z,99554.84
2022-12-14T10:01:43.879Z,99555.66
2022-12-14T10:04:56.465Z,99568.13
2022-12-14T10:08:30.140Z,99538.81
2022-12-14T10:11:44.296Z,99535.53
2022-12-14T10:15:14.078Z,99531.31
2022-12-14T10:18:58.478Z,99521.59
2022-12-14T10:22:13.492Z,99538.75
2022-12-14T10:25:31.708Z,99531.47
2022-12-14T10:28:48.496Z,99530.59
2022-12-14T10:32:02.403Z,99536.69
2022-12-14T10:35:17.999Z,99511.03
2022-12-14T10:38:42.019Z,99497.72
2022-12-14T10:41:52.641Z,99508.69
2022-12-14T10:45:39.800Z,99489.78
2022-12-14T10:48:49.267Z,99467.06
2022-12-14T10:52:12.431Z,99467.31
2022-12-14T10:55:27.785Z,99464.72
2022-12-14T10:58:30.957Z,99464.78
2022-12-14T11:01:34.027Z,99455.75
2022-12-14T11:04:42.947Z,99454.81
2022-12-14T11:07:49.950Z,99464.12
2022-12-14T11:11:07.836Z,99468.75
2022-12-14T11:14:18.393Z,99456.44
2022-12-14T11:17:37.453Z,99453.91
2022-12-14T11:20:57.478Z,99459.09
2022-12-14T11:24:01.415Z,99458.16
2022-12-14T11:27:06.105Z,99458.47
2022-12-14T11:30:16.417Z,99460.69
2022-12-14T11:33:18.954Z,99453.34
2022-12-14T11:36:27.294Z,99453.34
2022-12-14T11:39:30.376Z,99441.22
2022-12-14T11:42:34.059Z,99433.00
2022-12-14T11:45:37.295Z,99432.22
2022-12-14T11:48:49.352Z,99431.09
2022-12-14T11:51:57.215Z,99429.44
2022-12-14T11:55:00.137Z,99423.91
2022-12-14T11:58:03.650Z,99410.75
2022-12-14T12:01:16.272Z,99402.09
2022-12-14T12:04:19.252Z,99399.59
2022-12-14T12:07:37.402Z,99398.91
2022-12-14T12:10:45.119Z,99401.03
2022-12-14T12:13:59.252Z,99397.47
2022-12-14T12:17:02.093Z,99382.97
2022-12-14T12:20:18.334Z,99374.06
2022-12-14T12:23:43.874Z,99369.06
2022-12-14T12:26:51.016Z,99369.75
2022-12-14T12:30:19.712Z,99346.88
2022-12-14T12:33:37.506Z,99338.81
2022-12-14T12:36:56.940Z,99333.53
2022-12-14T12:40:29.026Z,99334.81
2022-12-14T12:43:43.671Z,99332.78
2022-12-14T12:50:29.948Z,99327.12
2022-12-14T12:53:56.841Z,99326.66
2022-12-14T12:57:02.506Z,99316.47
2022-12-14T13:00:07.299Z,99302.22
2022-12-14T13:03:22.337Z,99309.22
2022-12-14T13:06:34.346Z,99306.63
2022-12-14T13:09:49.909Z,99309.47
2022-12-14T13:12:58.465Z,99310.62
2022-12-14T13:16:35.105Z,99310.75
2022-12-14T13:19:52.726Z,99317.81
2022-12-14T13:23:05.715Z,99304.62
2022-12-14T13:30:16.980Z,99299.75
2022-12-14T13:33:45.771Z,99302.28
2022-12-14T13:37:01.456Z,99291.69
2022-12-14T13:40:51.827Z,99303.41
2022-12-14T13:44:13.428Z,99293.28
2022-12-14T13:47:23.797Z,99274.16
2022-12-14T13:50:36.336Z,99270.66
2022-12-14T13:53:50.220Z,99262.72
2022-12-14T13:57:09.659Z,99263.84
2022-12-14T14:00:40.629Z,99268.50
2022-12-14T14:03:46.044Z,99272.84
2022-12-14T14:06:57.313Z,99266.63
2022-12-14T14:10:06.967Z,99269.47
2022-12-14T14:13:28.515Z,99259.53
2022-12-14T14:16:43.701Z,99264.81
2022-12-14T14:19:49.456Z,99255.66
2022-12-14T14:23:17.759Z,99248.94
2022-12-14T14:26:25.950Z,99244.66
2022-12-14T14:29:32.720Z,99247.37
2022-12-14T14:32:42.360Z,99238.44
2022-12-14T14:35:49.525Z,99236.63
2022-12-14T14:38:55.163Z,99217.16
2022-12-14T14:42:00.606Z,99227.44
2022-12-14T14:45:06.193Z,99214.69
2022-12-14T14:48:38.172Z,99234.16
2022-12-14T14:51:40.792Z,99217.63
2022-12-14T14:55:16.287Z,99229.97
2022-12-14T14:58:09.176Z,99229.50
2022-12-14T15:01:12.076Z,99220.12
2022-12-14T15:04:23.848Z,99228.09
2022-12-14T15:07:31.220Z,99224.06
2022-12-14T15:10:41.831Z,99215.69
2022-12-14T15:13:48.100Z,99228.44
2022-12-14T15:16:50.994Z,99234.53
2022-12-14T15:19:56.010Z,99224.97
2022-12-14T15:22:58.715Z,99233.59
2022-12-14T15:26:04.562Z,99240.78
2022-12-14T15:29:18.662Z,99230.81
2022-12-14T15:32:23.999Z,99236.03
2022-12-14T15:35:39.292Z,99239.75
2022-12-14T15:38:54.399Z,99250.78
2022-12-14T15:42:05.902Z,99227.06
2022-12-14T15:45:14.407Z,99213.72
2022-12-14T15:48:34.588Z,99210.44
2022-12-14T15:51:44.228Z,99221.13
2022-12-14T15:54:46.927Z,99209.19
2022-12-14T15:57:50.140Z,99202.78
2022-12-14T16:00:55.374Z,99225.09
2022-12-14T16:04:06.373Z,99210.00
2022-12-14T16:07:15.831Z,99214.88
2022-12-14T16:10:25.184Z,99215.47
2022-12-14T16:13:33.584Z,99207.78
2022-12-14T16:16:36.780Z,99221.59
2022-12-14T16:19:58.159Z,99195.47
2022-12-14T16:23:06.375Z,99200.81
2022-12-14T16:26:15.045Z,99192.97
2022-12-14T16:29:31.562Z,99202.44
2022-12-14T16:32:34.246Z,99175.22
2022-12-14T16:35:38.352Z,99147.81
2022-12-14T16:39:03.938Z,99146.25
2022-12-14T16:42:18.205Z,99141.81
2022-12-14T16:45:36.150Z,99149.22
2022-12-14T16:48:45.349Z,99148.19
2022-12-14T16:52:26.861Z,99136.69
2022-12-14T16:55:30.257Z,99120.00
2022-12-14T16:58:35.914Z,99117.94
2022-12-14T17:01:47.114Z,99110.19
2022-12-14T17:04:52.979Z,99102.50
2022-12-14T17:07:56.020Z,99107.28
2022-12-14T17:10:59.544Z,99104.25
2022-12-14T17:14:02.482Z,99111.75
2022-12-14T17:17:05.557Z,99104.78
2022-12-14T17:20:21.660Z,99120.78
2022-12-14T17:23:24.878Z,99130.94
2022-12-14T17:26:30.862Z,99124.09
2022-12-14T17:29:33.805Z,99121.25
2022-12-14T17:32:36.972Z,99129.19
2022-12-14T17:35:39.560Z,99136.53
2022-12-14T17:38:43.312Z,99139.34
2022-12-14T17:41:46.949Z,99139.06
2022-12-14T17:44:59.479Z,99144.72
2022-12-14T17:48:02.397Z,99140.41
2022-12-14T17:51:05.841Z,99145.31
2022-12-14T17:54:19.029Z,99144.03
2022-12-14T17:57:24.395Z,99141.13
2022-12-14T18:00:48.829Z,99133.59
2022-12-14T18:03:52.588Z,99134.94
2022-12-14T18:06:55.939Z,99122.38
2022-12-14T18:09:58.900Z,99121.75
2022-12-14T18:13:02.410Z,99120.38
2022-12-14T18:16:06.319Z,99118.34
2022-12-14T18:19:09.771Z,99113.97
2022-12-14T18:22:12.708Z,99107.41
2022-12-14T18:25:36.461Z,99104.94
2022-12-14T18:28:43.784Z,99104.91
2022-12-14T18:31:50.203Z,99106.78
2022-12-14T18:34:53.244Z,99106.97
2022-12-14T18:37:57.024Z,99104.19
2022-12-14T18:41:01.812Z,99097.84
2022-12-14T18:44:05.136Z,99105.03
2022-12-14T18:47:33.560Z,99100.63
2022-12-14T18:50:31.304Z,99099.19
2022-12-14T18:53:34.765Z,99094.56
2022-12-14T18:56:37.927Z,99092.38
2022-12-14T18:59:42.810Z,99086.56
2022-12-14T19:02:49.718Z,99081.63
2022-12-14T19:06:34.398Z,99082.94
2022-12-14T19:09:26.909Z,99074.34
2022-12-14T19:12:30.219Z,99070.22
2022-12-14T19:15:35.615Z,99075.00
2022-12-14T19:18:40.443Z,99063.91
2022-12-14T19:21:43.347Z,99068.50
2022-12-14T19:24:52.133Z,99064.56
2022-12-14T19:31:18.909Z,99071.16
2022-12-14T19:34:21.845Z,99045.00
2022-12-14T19:37:25.147Z,99050.53
2022-12-14T19:40:28.281Z,99054.00
2022-12-14T19:43:31.986Z,99064.06
2022-12-14T19:46:34.886Z,99063.81
2022-12-14T19:49:38.601Z,99066.59
2022-12-14T19:52:42.660Z,99062.78
2022-12-14T19:55:52.731Z,99055.41
2022-12-14T19:58:57.789Z,99057.78
2022-12-14T20:02:01.925Z,99068.81
2022-12-14T20:05:06.159Z,99058.75
2022-12-14T20:08:09.494Z,99063.03
2022-12-14T20:11:14.898Z,99057.56
2022-12-14T20:14:17.815Z,99051.53
2022-12-14T20:17:20.718Z,99033.66
2022-12-14T20:20:23.912Z,99033.41
2022-12-14T20:23:28.517Z,99025.72
2022-12-14T20:26:32.066Z,99033.13
2022-12-14T20:29:36.150Z,99027.34
2022-12-14T20:32:41.108Z,99025.84
2022-12-14T20:35:44.319Z,99022.56
2022-12-14T20:38:49.179Z,99017.72
2022-12-14T20:41:53.433Z,99021.78
2022-12-14T20:44:56.122Z,99017.37
2022-12-14T20:47:59.338Z,99007.38
2022-12-14T20:51:02.988Z,99010.28
2022-12-14T20:54:09.165Z,99002.97
2022-12-14T20:57:12.130Z,99005.06
2022-12-14T21:00:15.545Z,98992.28
2022-12-14T21:03:18.462Z,99008.50
2022-12-14T21:06:22.699Z,99011.28
2022-12-14T21:09:25.306Z,99014.88
2022-12-14T21:12:28.341Z,99020.81
2022-12-14T21:15:31.095Z,99018.34
2022-12-14T21:18:34.234Z,99024.75
2022-12-14T21:21:36.906Z,99032.72
2022-12-14T21:28:02.597Z,99040.97
2022-12-14T21:31:07.736Z,99034.50
2022-12-14T21:34:14.520Z,99034.06
2022-12-14T21:37:17.781Z,99035.59
2022-12-14T21:40:39.125Z,99034.13
2022-12-14T21:43:44.703Z,99025.63
2022-12-14T21:46:47.236Z,99025.81
2022-12-14T21:49:50.011Z,99017.56
2022-12-14T21:52:53.864Z,99019.09
2022-12-14T21:56:16.621Z,99023.19
2022-12-14T21:59:34.163Z,99044.34
2022-12-14T22:02:37.510Z,99055.28
2022-12-14T22:05:40.438Z,99053.88
2022-12-14T22:08:42.917Z,99047.84
2022-12-14T22:11:46.319Z,99046.56
2022-12-14T22:14:50.267Z,99044.22
2022-12-14T22:17:53.313Z,99033.50
2022-12-14T22:21:03.854Z,99042.47
2022-12-14T22:24:07.468Z,99049.94
2022-12-14T22:27:12.125Z,99057.34
2022-12-14T22:30:15.082Z,99062.91
2022-12-14T22:33:17.532Z,99073.88
2022-12-14T22:36:22.291Z,99082.34
2022-12-14T22:39:24.779Z,99080.34
2022-12-14T22:42:27.647Z,99078.53
2022-12-14T22:45:30.272Z,99083.12
2022-12-14T22:48:35.288Z,99087.78
2022-12-14T22:51:38.342Z,99090.97
2022-12-14T22:54:41.330Z,99087.78
2022-12-14T22:57:45.866Z,99079.41
2022-12-14T23:00:49.761Z,99070.44
2022-12-14T23:03:53.474Z,99071.66
2022-12-14T23:06:56.530Z,99073.25
2022-12-14T23:10:18.243Z,99061.84
2022-12-14T23:13:39.314Z,99042.84
2022-12-14T23:17:00.288Z,99048.47
2022-12-14T23:20:22.515Z,99054.47
2022-12-14T23:23:43.778Z,99056.59
2022-12-14T23:27:09.269Z,99060.16
2022-12-14T23:30:31.061Z,99053.97
2022-12-14T23:33:53.703Z,99064.16
2022-12-14T23:37:20.069Z,99074.28
2022-12-14T23:40:42.530Z,99065.38
2022-12-14T23:44:03.864Z,99058.88
2022-12-14T23:47:26.323Z,99065.91
2022-12-14T23:50:47.508Z,99054.16
2022-12-14T23:54:09.515Z,99063.53
2022-12-14T23:57:30.475Z,99067.50
